sensor_id;sensor_type;location;lat;lon;timestamp;temperature;humidity
18287;DHT22;9269;50.838;12.094;2022-11-15T00:01:18;9.50;61.20
18287;DHT22;9269;50.838;12.094;2022-11-15T00:03:50;9.50;61.00
18287;DHT22;9269;50.838;12.094;2022-11-15T00:06:20;9.60;61.20
18287;DHT22;9269;50.838;12.094;2022-11-15T00:08:49;9.60;60.90
18287;DHT22;9269;50.838;12.094;2022-11-15T00:11:17;9.50;61.20
18287;DHT22;9269;50.838;12.094;2022-11-15T00:13:46;9.60;61.20
18287;DHT22;9269;50.838;12.094;2022-11-15T00:16:14;9.60;61.20
18287;DHT22;9269;50.838;12.094;2022-11-15T00:18:42;9.40;61.40
18287;DHT22;9269;50.838;12.094;2022-11-15T00:21:17;9.70;61.30
18287;DHT22;9269;50.838;12.094;2022-11-15T00:23:47;9.50;61.30
18287;DHT22;9269;50.838;12.094;2022-11-15T00:26:16;9.50;61.40
18287;DHT22;9269;50.838;12.094;2022-11-15T00:28:45;9.60;61.70
18287;DHT22;9269;50.838;12.094;2022-11-15T00:31:14;9.70;61.60
18287;DHT22;9269;50.838;12.094;2022-11-15T00:33:43;9.60;61.60
18287;DHT22;9269;50.838;12.094;2022-11-15T00:36:12;9.70;61.70
18287;DHT22;9269;50.838;12.094;2022-11-15T00:38:41;9.60;61.80
18287;DHT22;9269;50.838;12.094;2022-11-15T00:41:11;9.60;61.80
18287;DHT22;9269;50.838;12.094;2022-11-15T00:43:39;9.70;61.70
18287;DHT22;9269;50.838;12.094;2022-11-15T00:46:11;9.60;61.80
18287;DHT22;9269;50.838;12.094;2022-11-15T00:48:39;9.70;61.80
18287;DHT22;9269;50.838;12.094;2022-11-15T00:51:07;9.70;61.50
18287;DHT22;9269;50.838;12.094;2022-11-15T00:53:36;9.70;61.70
18287;DHT22;9269;50.838;12.094;2022-11-15T00:56:05;9.70;61.60
18287;DHT22;9269;50.838;12.094;2022-11-15T00:58:35;9.70;61.70
18287;DHT22;9269;50.838;12.094;2022-11-15T01:01:08;9.70;61.90
18287;DHT22;9269;50.838;12.094;2022-11-15T01:03:38;9.70;61.50
18287;DHT22;9269;50.838;12.094;2022-11-15T01:06:08;9.80;61.70
18287;DHT22;9269;50.838;12.094;2022-11-15T01:08:38;9.70;61.70
18287;DHT22;9269;50.838;12.094;2022-11-15T01:11:09;9.70;61.90
18287;DHT22;9269;50.838;12.094;2022-11-15T01:13:39;9.70;61.70
18287;DHT22;9269;50.838;12.094;2022-11-15T01:16:10;9.60;61.80
18287;DHT22;9269;50.838;12.094;2022-11-15T01:18:40;9.60;61.70
18287;DHT22;9269;50.838;12.094;2022-11-15T01:21:11;9.60;61.90
18287;DHT22;9269;50.838;12.094;2022-11-15T01:23:39;9.70;62.10
18287;DHT22;9269;50.838;12.094;2022-11-15T01:26:11;9.60;61.90
18287;DHT22;9269;50.838;12.094;2022-11-15T01:28:41;9.60;61.70
18287;DHT22;9269;50.838;12.094;2022-11-15T01:31:13;9.70;61.80
18287;DHT22;9269;50.838;12.094;2022-11-15T01:33:43;9.60;61.60
18287;DHT22;9269;50.838;12.094;2022-11-15T01:36:13;9.60;61.90
18287;DHT22;9269;50.838;12.094;2022-11-15T01:38:41;9.60;61.90
18287;DHT22;9269;50.838;12.094;2022-11-15T01:41:15;9.60;62.20
18287;DHT22;9269;50.838;12.094;2022-11-15T01:43:46;9.60;61.80
18287;DHT22;9269;50.838;12.094;2022-11-15T01:46:26;9.60;61.80
18287;DHT22;9269;50.838;12.094;2022-11-15T01:48:57;9.60;62.20
18287;DHT22;9269;50.838;12.094;2022-11-15T01:51:29;9.60;61.70
18287;DHT22;9269;50.838;12.094;2022-11-15T01:54:01;9.60;61.90
18287;DHT22;9269;50.838;12.094;2022-11-15T01:56:33;9.60;62.00
18287;DHT22;9269;50.838;12.094;2022-11-15T01:59:07;9.60;62.00
18287;DHT22;9269;50.838;12.094;2022-11-15T02:01:36;9.70;62.30
18287;DHT22;9269;50.838;12.094;2022-11-15T02:04:10;9.70;61.80
18287;DHT22;9269;50.838;12.094;2022-11-15T02:06:41;9.60;61.60
18287;DHT22;9269;50.838;12.094;2022-11-15T02:09:11;9.60;62.20
18287;DHT22;9269;50.838;12.094;2022-11-15T02:11:42;9.70;61.90
18287;DHT22;9269;50.838;12.094;2022-11-15T02:14:18;9.60;61.90
18287;DHT22;9269;50.838;12.094;2022-11-15T02:16:57;9.60;62.10
18287;DHT22;9269;50.838;12.094;2022-11-15T02:19:40;9.60;61.80
18287;DHT22;9269;50.838;12.094;2022-11-15T02:22:29;9.60;61.80
18287;DHT22;9269;50.838;12.094;2022-11-15T02:25:11;9.60;61.70
18287;DHT22;9269;50.838;12.094;2022-11-15T02:31:04;9.60;61.80
18287;DHT22;9269;50.838;12.094;2022-11-15T02:33:41;9.60;62.30
18287;DHT22;9269;50.838;12.094;2022-11-15T02:36:15;9.60;61.70
18287;DHT22;9269;50.838;12.094;2022-11-15T02:38:51;9.70;61.90
18287;DHT22;9269;50.838;12.094;2022-11-15T02:41:25;9.60;61.80
18287;DHT22;9269;50.838;12.094;2022-11-15T02:44:01;9.60;61.70
18287;DHT22;9269;50.838;12.094;2022-11-15T02:46:36;9.50;61.80
18287;DHT22;9269;50.838;12.094;2022-11-15T02:49:24;9.60;61.60
18287;DHT22;9269;50.838;12.094;2022-11-15T02:51:55;9.60;62.30
18287;DHT22;9269;50.838;12.094;2022-11-15T02:54:26;9.60;62.00
18287;DHT22;9269;50.838;12.094;2022-11-15T02:56:58;9.60;61.90
18287;DHT22;9269;50.838;12.094;2022-11-15T03:00:00;9.60;61.90
18287;DHT22;9269;50.838;12.094;2022-11-15T03:02:52;9.60;61.90
18287;DHT22;9269;50.838;12.094;2022-11-15T03:05:31;9.60;61.70
18287;DHT22;9269;50.838;12.094;2022-11-15T03:08:08;9.50;61.70
18287;DHT22;9269;50.838;12.094;2022-11-15T03:10:45;9.60;61.40
18287;DHT22;9269;50.838;12.094;2022-11-15T03:13:21;9.50;61.50
18287;DHT22;9269;50.838;12.094;2022-11-15T03:16:00;9.50;61.60
18287;DHT22;9269;50.838;12.094;2022-11-15T03:18:35;9.60;62.10
18287;DHT22;9269;50.838;12.094;2022-11-15T03:21:07;9.50;62.00
18287;DHT22;9269;50.838;12.094;2022-11-15T03:23:38;9.50;61.70
18287;DHT22;9269;50.838;12.094;2022-11-15T03:26:09;9.50;61.80
18287;DHT22;9269;50.838;12.094;2022-11-15T03:28:43;9.50;61.80
18287;DHT22;9269;50.838;12.094;2022-11-15T03:31:17;9.60;61.80
18287;DHT22;9269;50.838;12.094;2022-11-15T03:34:10;9.50;61.90
18287;DHT22;9269;50.838;12.094;2022-11-15T03:36:39;9.40;61.80
18287;DHT22;9269;50.838;12.094;2022-11-15T03:39:09;9.40;61.80
18287;DHT22;9269;50.838;12.094;2022-11-15T03:41:47;9.50;61.60
18287;DHT22;9269;50.838;12.094;2022-11-15T03:44:21;9.50;61.50
18287;DHT22;9269;50.838;12.094;2022-11-15T03:46:57;9.40;61.90
18287;DHT22;9269;50.838;12.094;2022-11-15T03:49:33;9.50;61.70
18287;DHT22;9269;50.838;12.094;2022-11-15T03:52:04;9.40;61.90
18287;DHT22;9269;50.838;12.094;2022-11-15T03:54:32;9.50;62.10
18287;DHT22;9269;50.838;12.094;2022-11-15T03:57:01;9.50;62.10
18287;DHT22;9269;50.838;12.094;2022-11-15T03:59:29;9.40;61.90
18287;DHT22;9269;50.838;12.094;2022-11-15T04:01:58;9.50;61.70
18287;DHT22;9269;50.838;12.094;2022-11-15T04:04:26;9.40;61.90
18287;DHT22;9269;50.838;12.094;2022-11-15T04:06:56;9.30;61.80
18287;DHT22;9269;50.838;12.094;2022-11-15T04:09:25;9.40;61.90
18287;DHT22;9269;50.838;12.094;2022-11-15T04:11:54;9.50;61.90
18287;DHT22;9269;50.838;12.094;2022-11-15T04:14:22;9.40;61.60
18287;DHT22;9269;50.838;12.094;2022-11-15T04:16:51;9.50;61.60
18287;DHT22;9269;50.838;12.094;2022-11-15T04:19:20;9.30;61.80
18287;DHT22;9269;50.838;12.094;2022-11-15T04:22:08;9.40;61.60
18287;DHT22;9269;50.838;12.094;2022-11-15T04:24:54;9.40;61.40
18287;DHT22;9269;50.838;12.094;2022-11-15T04:27:23;9.40;61.70
18287;DHT22;9269;50.838;12.094;2022-11-15T04:29:51;9.40;61.40
18287;DHT22;9269;50.838;12.094;2022-11-15T04:32:19;9.30;61.40
18287;DHT22;9269;50.838;12.094;2022-11-15T04:34:48;9.30;61.30
18287;DHT22;9269;50.838;12.094;2022-11-15T04:37:18;9.30;61.50
18287;DHT22;9269;50.838;12.094;2022-11-15T04:39:47;9.30;61.10
18287;DHT22;9269;50.838;12.094;2022-11-15T04:42:16;9.30;61.40
18287;DHT22;9269;50.838;12.094;2022-11-15T04:44:44;9.20;61.10
18287;DHT22;9269;50.838;12.094;2022-11-15T04:47:13;9.20;61.30
18287;DHT22;9269;50.838;12.094;2022-11-15T04:49:41;9.20;61.10
18287;DHT22;9269;50.838;12.094;2022-11-15T04:52:11;9.30;61.20
18287;DHT22;9269;50.838;12.094;2022-11-15T04:54:41;9.20;61.00
18287;DHT22;9269;50.838;12.094;2022-11-15T04:57:10;9.20;61.20
18287;DHT22;9269;50.838;12.094;2022-11-15T04:59:38;9.20;61.40
18287;DHT22;9269;50.838;12.094;2022-11-15T05:02:07;9.20;61.20
18287;DHT22;9269;50.838;12.094;2022-11-15T05:04:35;9.20;61.30
18287;DHT22;9269;50.838;12.094;2022-11-15T05:07:03;9.20;61.10
18287;DHT22;9269;50.838;12.094;2022-11-15T05:09:32;9.20;61.60
18287;DHT22;9269;50.838;12.094;2022-11-15T05:12:02;9.20;61.50
18287;DHT22;9269;50.838;12.094;2022-11-15T05:14:31;9.20;61.30
18287;DHT22;9269;50.838;12.094;2022-11-15T05:16:59;9.20;61.20
18287;DHT22;9269;50.838;12.094;2022-11-15T05:19:29;9.20;61.30
18287;DHT22;9269;50.838;12.094;2022-11-15T05:21:58;9.20;61.50
18287;DHT22;9269;50.838;12.094;2022-11-15T05:24:27;9.20;61.20
18287;DHT22;9269;50.838;12.094;2022-11-15T05:26:55;9.20;61.70
18287;DHT22;9269;50.838;12.094;2022-11-15T05:29:25;9.20;61.70
18287;DHT22;9269;50.838;12.094;2022-11-15T05:31:55;9.20;61.90
18287;DHT22;9269;50.838;12.094;2022-11-15T05:34:24;9.20;61.70
18287;DHT22;9269;50.838;12.094;2022-11-15T05:36:54;9.20;62.10
18287;DHT22;9269;50.838;12.094;2022-11-15T05:39:22;9.30;61.90
18287;DHT22;9269;50.838;12.094;2022-11-15T05:41:55;9.20;61.80
18287;DHT22;9269;50.838;12.094;2022-11-15T05:44:27;9.10;62.10
18287;DHT22;9269;50.838;12.094;2022-11-15T05:46:56;9.10;61.70
18287;DHT22;9269;50.838;12.094;2022-11-15T05:49:29;9.10;61.70
18287;DHT22;9269;50.838;12.094;2022-11-15T05:51:59;9.10;60.90
18287;DHT22;9269;50.838;12.094;2022-11-15T05:54:27;9.10;61.30
18287;DHT22;9269;50.838;12.094;2022-11-15T05:56:56;9.10;61.20
18287;DHT22;9269;50.838;12.094;2022-11-15T05:59:24;9.00;61.00
18287;DHT22;9269;50.838;12.094;2022-11-15T06:01:54;9.10;60.90
18287;DHT22;9269;50.838;12.094;2022-11-15T06:04:23;9.00;61.20
18287;DHT22;9269;50.838;12.094;2022-11-15T06:06:51;9.00;61.00
18287;DHT22;9269;50.838;12.094;2022-11-15T06:09:20;9.10;61.10
18287;DHT22;9269;50.838;12.094;2022-11-15T06:11:48;9.10;61.40
18287;DHT22;9269;50.838;12.094;2022-11-15T06:14:17;9.10;61.40
18287;DHT22;9269;50.838;12.094;2022-11-15T06:16:46;9.00;61.20
18287;DHT22;9269;50.838;12.094;2022-11-15T06:19:16;9.00;61.30
18287;DHT22;9269;50.838;12.094;2022-11-15T06:21:44;9.10;61.60
18287;DHT22;9269;50.838;12.094;2022-11-15T06:24:13;9.10;61.40
18287;DHT22;9269;50.838;12.094;2022-11-15T06:26:42;9.00;61.40
18287;DHT22;9269;50.838;12.094;2022-11-15T06:29:10;9.10;61.00
18287;DHT22;9269;50.838;12.094;2022-11-15T06:31:39;9.10;61.60
18287;DHT22;9269;50.838;12.094;2022-11-15T06:34:07;9.10;61.30
18287;DHT22;9269;50.838;12.094;2022-11-15T06:36:37;8.90;61.40
18287;DHT22;9269;50.838;12.094;2022-11-15T06:39:17;9.00;61.30
18287;DHT22;9269;50.838;12.094;2022-11-15T06:41:46;9.00;61.10
18287;DHT22;9269;50.838;12.094;2022-11-15T06:44:14;9.00;61.20
18287;DHT22;9269;50.838;12.094;2022-11-15T06:46:43;9.10;61.00
18287;DHT22;9269;50.838;12.094;2022-11-15T06:49:12;9.10;61.30
18287;DHT22;9269;50.838;12.094;2022-11-15T06:51:42;9.10;61.00
18287;DHT22;9269;50.838;12.094;2022-11-15T06:54:10;9.00;61.30
18287;DHT22;9269;50.838;12.094;2022-11-15T06:56:39;9.00;61.10
18287;DHT22;9269;50.838;12.094;2022-11-15T06:59:07;9.00;61.30
18287;DHT22;9269;50.838;12.094;2022-11-15T07:01:36;8.80;61.30
18287;DHT22;9269;50.838;12.094;2022-11-15T07:04:05;9.00;61.30
18287;DHT22;9269;50.838;12.094;2022-11-15T07:06:34;9.00;61.00
18287;DHT22;9269;50.838;12.094;2022-11-15T07:09:05;9.10;61.50
18287;DHT22;9269;50.838;12.094;2022-11-15T07:11:33;9.00;61.60
18287;DHT22;9269;50.838;12.094;2022-11-15T07:14:02;9.00;61.60
18287;DHT22;9269;50.838;12.094;2022-11-15T07:16:30;9.10;61.40
18287;DHT22;9269;50.838;12.094;2022-11-15T07:18:59;9.10;61.50
18287;DHT22;9269;50.838;12.094;2022-11-15T07:21:29;9.20;61.40
18287;DHT22;9269;50.838;12.094;2022-11-15T07:23:57;9.10;61.80
18287;DHT22;9269;50.838;12.094;2022-11-15T07:26:28;9.30;61.30
18287;DHT22;9269;50.838;12.094;2022-11-15T07:28:56;9.20;61.10
18287;DHT22;9269;50.838;12.094;2022-11-15T07:31:25;9.20;61.50
18287;DHT22;9269;50.838;12.094;2022-11-15T07:33:53;9.10;61.30
18287;DHT22;9269;50.838;12.094;2022-11-15T07:36:22;9.30;61.30
18287;DHT22;9269;50.838;12.094;2022-11-15T07:38:50;9.30;61.30
18287;DHT22;9269;50.838;12.094;2022-11-15T07:41:18;9.40;61.30
18287;DHT22;9269;50.838;12.094;2022-11-15T07:43:51;9.40;61.70
18287;DHT22;9269;50.838;12.094;2022-11-15T07:46:20;9.50;61.40
18287;DHT22;9269;50.838;12.094;2022-11-15T07:48:50;9.50;61.30
18287;DHT22;9269;50.838;12.094;2022-11-15T07:51:18;9.40;61.30
18287;DHT22;9269;50.838;12.094;2022-11-15T07:53:47;9.60;61.30
18287;DHT22;9269;50.838;12.094;2022-11-15T07:56:15;9.60;61.30
18287;DHT22;9269;50.838;12.094;2022-11-15T07:58:45;9.80;61.10
18287;DHT22;9269;50.838;12.094;2022-11-15T08:01:15;9.80;61.00
18287;DHT22;9269;50.838;12.094;2022-11-15T08:03:45;9.80;61.00
18287;DHT22;9269;50.838;12.094;2022-11-15T08:06:14;9.80;61.20
18287;DHT22;9269;50.838;12.094;2022-11-15T08:08:43;10.00;61.10
18287;DHT22;9269;50.838;12.094;2022-11-15T08:11:12;10.00;60.90
18287;DHT22;9269;50.838;12.094;2022-11-15T08:13:40;10.10;60.60
18287;DHT22;9269;50.838;12.094;2022-11-15T08:16:08;10.10;60.70
18287;DHT22;9269;50.838;12.094;2022-11-15T08:18:40;10.30;60.60
18287;DHT22;9269;50.838;12.094;2022-11-15T08:21:09;10.30;60.50
18287;DHT22;9269;50.838;12.094;2022-11-15T08:23:45;10.50;60.30
18287;DHT22;9269;50.838;12.094;2022-11-15T08:26:14;10.40;60.00
18287;DHT22;9269;50.838;12.094;2022-11-15T08:28:45;10.50;60.00
18287;DHT22;9269;50.838;12.094;2022-11-15T08:31:15;10.60;59.30
18287;DHT22;9269;50.838;12.094;2022-11-15T08:33:46;10.70;59.60
18287;DHT22;9269;50.838;12.094;2022-11-15T08:36:16;10.80;59.40
18287;DHT22;9269;50.838;12.094;2022-11-15T08:38:45;10.90;58.90
18287;DHT22;9269;50.838;12.094;2022-11-15T08:41:19;11.00;59.20
18287;DHT22;9269;50.838;12.094;2022-11-15T08:43:50;11.20;58.80
18287;DHT22;9269;50.838;12.094;2022-11-15T08:46:19;11.30;59.30
18287;DHT22;9269;50.838;12.094;2022-11-15T08:48:48;11.40;59.20
18287;DHT22;9269;50.838;12.094;2022-11-15T08:51:18;11.50;58.80
18287;DHT22;9269;50.838;12.094;2022-11-15T08:53:47;11.70;58.50
18287;DHT22;9269;50.838;12.094;2022-11-15T08:56:15;11.90;58.70
18287;DHT22;9269;50.838;12.094;2022-11-15T08:58:44;12.00;58.10
18287;DHT22;9269;50.838;12.094;2022-11-15T09:01:18;12.10;57.80
18287;DHT22;9269;50.838;12.094;2022-11-15T09:03:48;12.30;58.40
18287;DHT22;9269;50.838;12.094;2022-11-15T09:06:17;12.30;58.40
18287;DHT22;9269;50.838;12.094;2022-11-15T09:08:45;12.40;58.60
18287;DHT22;9269;50.838;12.094;2022-11-15T09:11:16;12.50;58.20
18287;DHT22;9269;50.838;12.094;2022-11-15T09:13:47;12.60;58.30
18287;DHT22;9269;50.838;12.094;2022-11-15T09:16:16;12.70;56.40
18287;DHT22;9269;50.838;12.094;2022-11-15T09:18:45;12.80;56.10
18287;DHT22;9269;50.838;12.094;2022-11-15T09:21:15;13.00;55.60
18287;DHT22;9269;50.838;12.094;2022-11-15T09:23:44;13.00;55.50
18287;DHT22;9269;50.838;12.094;2022-11-15T09:26:13;13.20;55.70
18287;DHT22;9269;50.838;12.094;2022-11-15T09:28:41;13.20;55.40
18287;DHT22;9269;50.838;12.094;2022-11-15T09:31:10;13.30;55.20
18287;DHT22;9269;50.838;12.094;2022-11-15T09:33:43;13.40;55.10
18287;DHT22;9269;50.838;12.094;2022-11-15T09:36:12;13.50;54.80
18287;DHT22;9269;50.838;12.094;2022-11-15T09:38:43;13.60;54.50
18287;DHT22;9269;50.838;12.094;2022-11-15T09:41:32;13.70;54.20
18287;DHT22;9269;50.838;12.094;2022-11-15T09:44:17;13.80;54.10
18287;DHT22;9269;50.838;12.094;2022-11-15T09:46:59;13.90;54.20
18287;DHT22;9269;50.838;12.094;2022-11-15T09:49:31;14.00;54.20
18287;DHT22;9269;50.838;12.094;2022-11-15T09:52:00;14.00;54.30
18287;DHT22;9269;50.838;12.094;2022-11-15T09:54:32;14.10;54.80
18287;DHT22;9269;50.838;12.094;2022-11-15T09:57:24;14.20;54.40
18287;DHT22;9269;50.838;12.094;2022-11-15T10:00:08;14.40;53.70
18287;DHT22;9269;50.838;12.094;2022-11-15T10:03:11;14.40;53.50
18287;DHT22;9269;50.838;12.094;2022-11-15T10:05:42;14.40;53.20
18287;DHT22;9269;50.838;12.094;2022-11-15T10:08:20;14.60;53.00
18287;DHT22;9269;50.838;12.094;2022-11-15T10:10:55;14.60;52.80
18287;DHT22;9269;50.838;12.094;2022-11-15T10:13:46;14.70;52.80
18287;DHT22;9269;50.838;12.094;2022-11-15T10:16:36;14.80;52.50
18287;DHT22;9269;50.838;12.094;2022-11-15T10:19:14;15.00;51.90
18287;DHT22;9269;50.838;12.094;2022-11-15T10:21:58;15.00;52.00
18287;DHT22;9269;50.838;12.094;2022-11-15T10:24:33;15.10;51.40
18287;DHT22;9269;50.838;12.094;2022-11-15T10:27:09;15.10;50.80
18287;DHT22;9269;50.838;12.094;2022-11-15T10:29:43;15.20;51.30
18287;DHT22;9269;50.838;12.094;2022-11-15T10:32:13;15.20;51.10
18287;DHT22;9269;50.838;12.094;2022-11-15T10:34:42;15.30;50.50
18287;DHT22;9269;50.838;12.094;2022-11-15T10:37:11;15.30;50.50
18287;DHT22;9269;50.838;12.094;2022-11-15T10:39:40;15.40;48.60
18287;DHT22;9269;50.838;12.094;2022-11-15T10:42:17;15.50;48.80
18287;DHT22;9269;50.838;12.094;2022-11-15T10:44:51;15.50;49.00
18287;DHT22;9269;50.838;12.094;2022-11-15T10:47:25;15.50;48.90
18287;DHT22;9269;50.838;12.094;2022-11-15T10:50:00;15.50;48.40
18287;DHT22;9269;50.838;12.094;2022-11-15T10:52:30;15.40;49.90
18287;DHT22;9269;50.838;12.094;2022-11-15T10:55:04;15.50;48.80
18287;DHT22;9269;50.838;12.094;2022-11-15T10:57:38;15.40;48.60
18287;DHT22;9269;50.838;12.094;2022-11-15T11:00:35;15.40;49.20
18287;DHT22;9269;50.838;12.094;2022-11-15T11:03:17;15.40;48.10
18287;DHT22;9269;50.838;12.094;2022-11-15T11:05:48;15.40;50.30
18287;DHT22;9269;50.838;12.094;2022-11-15T11:08:32;15.30;50.50
18287;DHT22;9269;50.838;12.094;2022-11-15T11:11:03;15.40;49.20
18287;DHT22;9269;50.838;12.094;2022-11-15T11:13:35;15.50;49.60
18287;DHT22;9269;50.838;12.094;2022-11-15T11:16:23;15.40;50.60
18287;DHT22;9269;50.838;12.094;2022-11-15T11:19:00;15.50;49.30
18287;DHT22;9269;50.838;12.094;2022-11-15T11:21:42;15.50;49.40
18287;DHT22;9269;50.838;12.094;2022-11-15T11:24:18;15.50;49.80
18287;DHT22;9269;50.838;12.094;2022-11-15T11:27:13;15.50;49.50
18287;DHT22;9269;50.838;12.094;2022-11-15T11:29:59;15.60;49.30
18287;DHT22;9269;50.838;12.094;2022-11-15T11:32:40;15.60;49.20
18287;DHT22;9269;50.838;12.094;2022-11-15T11:35:26;15.60;49.50
18287;DHT22;9269;50.838;12.094;2022-11-15T11:38:06;15.60;49.10
18287;DHT22;9269;50.838;12.094;2022-11-15T11:40:43;15.60;48.70
18287;DHT22;9269;50.838;12.094;2022-11-15T11:43:17;15.60;48.70
18287;DHT22;9269;50.838;12.094;2022-11-15T11:46:08;15.60;48.80
18287;DHT22;9269;50.838;12.094;2022-11-15T11:48:43;15.60;48.90
18287;DHT22;9269;50.838;12.094;2022-11-15T11:51:17;15.60;48.40
18287;DHT22;9269;50.838;12.094;2022-11-15T11:53:52;15.70;48.40
18287;DHT22;9269;50.838;12.094;2022-11-15T11:56:26;15.60;48.60
18287;DHT22;9269;50.838;12.094;2022-11-15T11:59:02;15.60;48.70
18287;DHT22;9269;50.838;12.094;2022-11-15T12:01:37;15.70;48.20
18287;DHT22;9269;50.838;12.094;2022-11-15T12:04:12;15.60;48.50
18287;DHT22;9269;50.838;12.094;2022-11-15T12:06:47;15.60;47.90
18287;DHT22;9269;50.838;12.094;2022-11-15T12:09:20;15.60;48.00
18287;DHT22;9269;50.838;12.094;2022-11-15T12:11:54;15.70;47.80
18287;DHT22;9269;50.838;12.094;2022-11-15T12:14:32;15.70;47.60
18287;DHT22;9269;50.838;12.094;2022-11-15T12:17:02;15.70;47.70
18287;DHT22;9269;50.838;12.094;2022-11-15T12:19:31;15.60;47.40
18287;DHT22;9269;50.838;12.094;2022-11-15T12:22:03;15.60;47.70
18287;DHT22;9269;50.838;12.094;2022-11-15T12:24:37;15.50;47.60
18287;DHT22;9269;50.838;12.094;2022-11-15T12:27:16;15.70;47.30
18287;DHT22;9269;50.838;12.094;2022-11-15T12:29:56;15.60;46.90
18287;DHT22;9269;50.838;12.094;2022-11-15T12:32:29;15.60;47.00
18287;DHT22;9269;50.838;12.094;2022-11-15T12:35:01;15.50;46.90
18287;DHT22;9269;50.838;12.094;2022-11-15T12:37:49;15.60;47.00
18287;DHT22;9269;50.838;12.094;2022-11-15T12:43:36;15.50;46.90
18287;DHT22;9269;50.838;12.094;2022-11-15T12:46:11;15.60;46.60
18287;DHT22;9269;50.838;12.094;2022-11-15T12:48:53;15.50;46.60
18287;DHT22;9269;50.838;12.094;2022-11-15T12:54:59;15.50;46.50
18287;DHT22;9269;50.838;12.094;2022-11-15T12:57:32;15.40;46.40
18287;DHT22;9269;50.838;12.094;2022-11-15T13:00:04;15.40;46.80
18287;DHT22;9269;50.838;12.094;2022-11-15T13:02:36;15.40;47.90
18287;DHT22;9269;50.838;12.094;2022-11-15T13:06:04;15.40;47.90
18287;DHT22;9269;50.838;12.094;2022-11-15T13:08:38;15.40;47.50
18287;DHT22;9269;50.838;12.094;2022-11-15T13:17:37;15.30;48.00
18287;DHT22;9269;50.838;12.094;2022-11-15T13:20:22;15.30;47.60
18287;DHT22;9269;50.838;12.094;2022-11-15T13:22:52;15.30;47.50
18287;DHT22;9269;50.838;12.094;2022-11-15T13:25:43;15.30;47.00
18287;DHT22;9269;50.838;12.094;2022-11-15T13:28:22;15.30;47.10
18287;DHT22;9269;50.838;12.094;2022-11-15T13:30:53;15.30;47.10
18287;DHT22;9269;50.838;12.094;2022-11-15T13:33:25;15.20;47.20
18287;DHT22;9269;50.838;12.094;2022-11-15T13:36:05;15.30;47.40
18287;DHT22;9269;50.838;12.094;2022-11-15T13:38:36;15.30;47.30
18287;DHT22;9269;50.838;12.094;2022-11-15T13:41:17;15.40;47.30
18287;DHT22;9269;50.838;12.094;2022-11-15T13:43:48;15.30;47.50
18287;DHT22;9269;50.838;12.094;2022-11-15T13:46:19;15.30;47.40
18287;DHT22;9269;50.838;12.094;2022-11-15T13:48:52;15.30;47.30
18287;DHT22;9269;50.838;12.094;2022-11-15T13:51:27;15.30;47.20
18287;DHT22;9269;50.838;12.094;2022-11-15T13:54:00;15.20;47.30
18287;DHT22;9269;50.838;12.094;2022-11-15T13:56:31;15.20;47.60
18287;DHT22;9269;50.838;12.094;2022-11-15T13:59:08;15.20;47.20
18287;DHT22;9269;50.838;12.094;2022-11-15T14:01:39;15.30;47.30
18287;DHT22;9269;50.838;12.094;2022-11-15T14:04:13;15.20;47.00
18287;DHT22;9269;50.838;12.094;2022-11-15T14:06:49;15.20;47.50
18287;DHT22;9269;50.838;12.094;2022-11-15T14:09:30;15.20;47.30
18287;DHT22;9269;50.838;12.094;2022-11-15T14:12:02;15.10;47.30
18287;DHT22;9269;50.838;12.094;2022-11-15T14:14:48;15.10;47.50
18287;DHT22;9269;50.838;12.094;2022-11-15T14:17:20;15.10;47.60
18287;DHT22;9269;50.838;12.094;2022-11-15T14:19:51;15.10;47.90
18287;DHT22;9269;50.838;12.094;2022-11-15T14:22:23;15.10;47.80
18287;DHT22;9269;50.838;12.094;2022-11-15T14:25:14;15.00;47.80
18287;DHT22;9269;50.838;12.094;2022-11-15T14:27:45;14.90;47.90
18287;DHT22;9269;50.838;12.094;2022-11-15T14:30:32;14.90;48.00
18287;DHT22;9269;50.838;12.094;2022-11-15T14:33:01;14.80;48.10
18287;DHT22;9269;50.838;12.094;2022-11-15T14:35:33;14.90;48.00
18287;DHT22;9269;50.838;12.094;2022-11-15T14:38:03;14.80;47.90
18287;DHT22;9269;50.838;12.094;2022-11-15T14:40:32;14.80;47.80
18287;DHT22;9269;50.838;12.094;2022-11-15T14:43:01;14.70;48.30
18287;DHT22;9269;50.838;12.094;2022-11-15T14:45:29;14.70;48.30
18287;DHT22;9269;50.838;12.094;2022-11-15T14:47:58;14.70;48.30
18287;DHT22;9269;50.838;12.094;2022-11-15T14:50:27;14.60;48.00
18287;DHT22;9269;50.838;12.094;2022-11-15T14:52:56;14.60;48.40
18287;DHT22;9269;50.838;12.094;2022-11-15T14:55:27;14.60;48.50
18287;DHT22;9269;50.838;12.094;2022-11-15T14:57:56;14.60;48.30
18287;DHT22;9269;50.838;12.094;2022-11-15T15:00:25;14.60;48.30
18287;DHT22;9269;50.838;12.094;2022-11-15T15:03:02;14.50;48.50
18287;DHT22;9269;50.838;12.094;2022-11-15T15:05:34;14.50;48.10
18287;DHT22;9269;50.838;12.094;2022-11-15T15:08:03;14.40;48.40
18287;DHT22;9269;50.838;12.094;2022-11-15T15:10:35;14.50;48.20
18287;DHT22;9269;50.838;12.094;2022-11-15T15:13:14;14.40;48.10
18287;DHT22;9269;50.838;12.094;2022-11-15T15:15:43;14.40;48.30
18287;DHT22;9269;50.838;12.094;2022-11-15T15:18:12;14.30;48.20
18287;DHT22;9269;50.838;12.094;2022-11-15T15:20:42;14.30;48.60
18287;DHT22;9269;50.838;12.094;2022-11-15T15:23:18;14.30;48.40
18287;DHT22;9269;50.838;12.094;2022-11-15T15:25:48;14.30;48.40
18287;DHT22;9269;50.838;12.094;2022-11-15T15:28:17;14.20;48.60
18287;DHT22;9269;50.838;12.094;2022-11-15T15:30:46;14.20;48.50
18287;DHT22;9269;50.838;12.094;2022-11-15T15:33:15;14.20;48.80
18287;DHT22;9269;50.838;12.094;2022-11-15T15:35:45;14.10;48.80
18287;DHT22;9269;50.838;12.094;2022-11-15T15:38:14;14.10;48.80
18287;DHT22;9269;50.838;12.094;2022-11-15T15:40:42;14.10;48.80
18287;DHT22;9269;50.838;12.094;2022-11-15T15:43:12;14.10;48.90
18287;DHT22;9269;50.838;12.094;2022-11-15T15:45:41;14.00;48.80
18287;DHT22;9269;50.838;12.094;2022-11-15T15:48:12;13.90;49.00
18287;DHT22;9269;50.838;12.094;2022-11-15T15:50:42;13.90;49.60
18287;DHT22;9269;50.838;12.094;2022-11-15T15:53:12;13.80;49.00
18287;DHT22;9269;50.838;12.094;2022-11-15T15:55:41;13.80;49.60
18287;DHT22;9269;50.838;12.094;2022-11-15T15:58:11;13.70;49.40
18287;DHT22;9269;50.838;12.094;2022-11-15T16:00:40;13.70;50.00
18287;DHT22;9269;50.838;12.094;2022-11-15T16:03:08;13.60;50.00
18287;DHT22;9269;50.838;12.094;2022-11-15T16:05:37;13.60;49.80
18287;DHT22;9269;50.838;12.094;2022-11-15T16:08:12;13.50;50.20
18287;DHT22;9269;50.838;12.094;2022-11-15T16:10:45;13.50;49.80
18287;DHT22;9269;50.838;12.094;2022-11-15T16:13:15;13.50;50.10
18287;DHT22;9269;50.838;12.094;2022-11-15T16:15:44;13.50;50.20
18287;DHT22;9269;50.838;12.094;2022-11-15T16:18:16;13.40;50.20
18287;DHT22;9269;50.838;12.094;2022-11-15T16:20:47;13.40;50.30
18287;DHT22;9269;50.838;12.094;2022-11-15T16:23:18;13.30;50.60
18287;DHT22;9269;50.838;12.094;2022-11-15T16:25:51;13.30;50.40
18287;DHT22;9269;50.838;12.094;2022-11-15T16:28:26;13.30;50.60